Buxton, OR

11:17 PM PDT on August 22, 2014 (GMT -0700)
West Washington County | Change Station
CLOSE
Current Station
Personal Weather Station
Location: Manning, OR
Elevation: 492 ft
Nearby Weather Stations

Elev 492 ft 45.67 °N, 123.15 °W | Updated 2 minutes ago

Clear
Clear
61.4 °F
Feels Like 61.4 °F
N
0.0
Wind Variable Wind from SE
Gusts 0.0 mph

Today
High -- | Low -- °F
--% Chance of Precip.
Yesterday
High -- | Low -- °F
Precip. -- in
6:21 AM 8:08 PM
Waning Crescent, 5% visible
Pressure 30.06 in
Visibility 10.0 miles
Clouds Clear
Dew Point 51 °F
Humidity 69%
Rainfall 0.00 in
Snow Depth 0 in , 4 in
UV 0 out of 12
Pollen 3.50 out of 12
Air Quality Not available.
Flu Activity Not available.
METAR KSPB 230553Z AUTO VRB04KT 10SM CLR 19/11 A3005 RMK AO2 SLP177 T01940111 10267 20194 51010

More Conditions Fewer Conditions

Pressure 30.06 in
Visibility 10.0 miles
Clouds Clear
Dew Point 51 °F
Humidity 69%
Rainfall 0.00 in
Snow Depth 0 in , 4 in
UV 0 out of 12
Pollen 3.50 out of 12
Air Quality Not available.
Flu Activity Not available.
METAR KSPB 230553Z AUTO VRB04KT 10SM CLR 19/11 A3005 RMK AO2 SLP177 T01940111 10267 20194 51010

More Conditions Fewer Conditions

10-Day Weather Forecast

Almanac

Astronomy

Aug. 22, 2014 Rise Set
Actual Time 6:21 AM PDT 8:08 PM PDT
Civil Twilight 5:49 AM PDT 8:40 PM PDT
Nautical Twilight 5:11 AM PDT 9:18 PM PDT
Astronomical Twilight 4:28 AM PDT 10:00 PM PDT
Moon 3:45 AM PDT (8/22) 6:23 PM PDT (8/22)
Length of Visible Light 14h 50m
Length of Day
13h 47m
Tomorrow will be 2m 59s shorter.
Waning Crescent, 5% of the Moon is Illuminated
Aug 23
Waning Crescent
Aug 25
New
Sep 2
First Quarter
Sep 8
Full
Sep 15
Last Quarter

Community

WunderPhotos

Upload Photos

1,746,371 photos uploaded!

WunderBlogs® & News

By Dr. Jeff Masters
Director of Meteorology, Weather Underground
By Kari Strenfel
Meteorologist, Weather Underground
By Christopher C. Burt
Weather Historian, Weather Underground
August 23, 2014
August 23, 2014
August 22, 2014

Nearby

Snow Depth

Station Depth Elevation
Seine Creek 0 in 2000 ft
Saddle Mountain 4 in 3250 ft
North Fork 1 in 3120 ft
Blazed Alder 0 in 3650 ft
Greenpoint 1 in 3200 ft

Earthquake Activity

City Distance Mag. Time & Date
No recent earthquake activity has been reported nearby.
Minimum magnitude displayed is 2.5.

Coastal Water Temperatures

Place Temperature
Astoria, OR 71.1 °F
Westport, WA 57.0 °F

Nearby Weather Stations